Rough Edge, Mississippi
Current Conditions -  °F | °C
As of 1:53 PM on Thursday 20 Nov 2014 (Local Time) from KTUP Reporting Station
Clear Clear  
Wind Chill: 58°   Ceiling: Unl
Heat Index: 58°   Visibility: 10mi
Dew Point: 31°   Wind: 0mph
Humidity: 36%   Direction: NA
Pressure: 30.2"   Gusts: NA
Location:  34.1762°N, 88.9612°W
Report Text: KTUP 201953Z 00000KT 10SM CLR 14/M01 A3020 RMK AO2 SLP227 T01441006
Loading
Personal Weather Stations






























Interactive Weather Map New forecast layout! Learn more

10-Day Weather Forecast

Advertisements
Track Severe Weather on mobile